Time;durP1;ratioP1;P1;durP2;ratioP2;P2;SDS_P1;SDS_P2;PMS_P1;PMS_P2;Temp;Humidity;BMP_temperature;BMP_pressure;BME280_temperature;BME280_humidity;BME280_pressure;Samples;Min_cycle;Max_cycle;Signal;HPM_P1;HPM_P2
2022/10/03 00:01:11;;;;;;;;;;;8.80;99.90;;;;;;5065023;28;20414;-65
2022/10/03 00:03:39;;;;;;;;;;;8.80;99.90;;;;;;5069555;28;19919;-64
2022/10/03 00:06:09;;;;;;;;;;;8.70;99.90;;;;;;5057581;28;19921;-65
2022/10/03 00:08:34;;;;;;;;;;;8.60;99.90;;;;;;5063645;28;19995;-64
2022/10/03 00:11:08;;;;;;;;;;;8.60;99.90;;;;;;5063211;28;20468;-64
2022/10/03 00:13:33;;;;;;;;;;;8.60;99.90;;;;;;5054184;28;19913;-66
2022/10/03 00:16:05;;;;;;;;;;;8.50;99.90;;;;;;5069766;28;19916;-66
2022/10/03 00:18:42;;;;;;;;;;;8.50;99.90;;;;;;5073764;28;19912;-65
2022/10/03 00:21:08;;;;;;;;;;;8.50;99.90;;;;;;5072685;28;20389;-65
2022/10/03 00:23:36;;;;;;;;;;;8.50;99.90;;;;;;5067674;28;19908;-65
2022/10/03 00:26:25;;;;;;;;;;;8.40;99.90;;;;;;5059147;28;19921;-63
2022/10/03 00:28:47;;;;;;;;;;;8.30;99.90;;;;;;5065407;28;19913;-63
2022/10/03 00:31:13;;;;;;;;;;;8.30;99.90;;;;;;5071195;28;19919;-65
2022/10/03 00:33:51;;;;;;;;;;;8.30;99.90;;;;;;5063333;28;19905;-65
2022/10/03 00:36:23;;;;;;;;;;;8.30;99.90;;;;;;5061431;28;19913;-64
2022/10/03 00:38:54;;;;;;;;;;;8.30;99.90;;;;;;5069296;28;19991;-64
2022/10/03 00:41:43;;;;;;;;;;;8.30;99.90;;;;;;5069247;28;19928;-65
2022/10/03 00:44:47;;;;;;;;;;;8.20;99.90;;;;;;5069264;28;19934;-64
2022/10/03 00:47:23;;;;;;;;;;;8.20;99.90;;;;;;4993263;28;20435;-64
2022/10/03 00:50:06;;;;;;;;;;;8.20;99.90;;;;;;4991474;28;20050;-65
2022/10/03 00:52:32;;;;;;;;;;;8.10;99.90;;;;;;5040805;28;19966;-64
2022/10/03 00:55:00;;;;;;;;;;;8.10;99.90;;;;;;5070451;28;19928;-64
2022/10/03 00:57:43;;;;;;;;;;;8.10;99.90;;;;;;5068881;28;19916;-65
2022/10/03 01:00:12;;;;;;;;;;;8.00;99.90;;;;;;5063639;28;20290;-65
2022/10/03 01:02:57;;;;;;;;;;;8.10;99.90;;;;;;5066867;28;19919;-64
2022/10/03 01:05:30;;;;;;;;;;;8.00;99.90;;;;;;5068190;28;19924;-65
2022/10/03 01:08:25;;;;;;;;;;;8.00;99.90;;;;;;5066211;28;19983;-65
2022/10/03 01:11:19;;;;;;;;;;;8.10;99.90;;;;;;4996075;28;20380;-65
2022/10/03 01:14:10;;;;;;;;;;;8.10;99.90;;;;;;5057757;28;19916;-65
2022/10/03 01:16:57;;;;;;;;;;;8.00;99.90;;;;;;5076095;28;19917;-64
2022/10/03 01:19:42;;;;;;;;;;;8.10;99.90;;;;;;5051606;28;19922;-64
2022/10/03 01:22:10;;;;;;;;;;;8.00;99.90;;;;;;5065273;28;19935;-64
2022/10/03 01:24:38;;;;;;;;;;;8.10;99.90;;;;;;5072349;28;19920;-64
2022/10/03 01:27:05;;;;;;;;;;;8.10;99.90;;;;;;5063785;28;19920;-65
2022/10/03 01:32:40;;;;;;;;;;;8.10;99.90;;;;;;5065686;28;20480;-65
2022/10/03 01:35:18;;;;;;;;;;;8.20;99.90;;;;;;5073547;28;20373;-65
2022/10/03 01:38:03;;;;;;;;;;;8.20;99.90;;;;;;5067915;28;19912;-64
2022/10/03 01:40:38;;;;;;;;;;;8.00;99.90;;;;;;5070634;28;19912;-64
2022/10/03 01:43:12;;;;;;;;;;;8.00;99.90;;;;;;5068414;28;20611;-65
2022/10/03 01:45:45;;;;;;;;;;;8.00;99.90;;;;;;5064580;28;20038;-64
2022/10/03 01:48:17;;;;;;;;;;;8.00;99.90;;;;;;5063101;28;20345;-65
2022/10/03 01:51:01;;;;;;;;;;;8.10;99.90;;;;;;5065980;28;20015;-64
2022/10/03 01:53:26;;;;;;;;;;;8.10;99.90;;;;;;5054057;28;19920;-64
2022/10/03 01:56:03;;;;;;;;;;;8.20;99.90;;;;;;5065155;28;19974;-64
2022/10/03 01:58:36;;;;;;;;;;;8.30;99.90;;;;;;5063195;28;20445;-65
2022/10/03 02:01:20;;;;;;;;;;;8.30;99.90;;;;;;5063797;28;19912;-63
2022/10/03 02:03:53;;;;;;;;;;;8.40;99.90;;;;;;5069659;28;19912;-63
2022/10/03 02:06:31;;;;;;;;;;;8.30;99.90;;;;;;5066959;28;19924;-64
2022/10/03 02:09:02;;;;;;;;;;;8.20;99.90;;;;;;5066916;28;19938;-65
2022/10/03 02:11:36;;;;;;;;;;;8.30;99.90;;;;;;5046368;28;20015;-65
2022/10/03 02:14:11;;;;;;;;;;;8.40;99.90;;;;;;5063758;28;20322;-65
2022/10/03 02:17:03;;;;;;;;;;;8.50;99.90;;;;;;5052211;28;19917;-64
2022/10/03 02:19:32;;;;;;;;;;;8.30;99.90;;;;;;5064743;28;19912;-65
2022/10/03 02:21:59;;;;;;;;;;;8.30;99.90;;;;;;5070907;28;19913;-65
2022/10/03 02:24:25;;;;;;;;;;;8.20;99.90;;;;;;5066321;28;19955;-65
2022/10/03 02:27:06;;;;;;;;;;;8.10;99.90;;;;;;5073943;28;19963;-65
2022/10/03 02:29:43;;;;;;;;;;;8.20;99.90;;;;;;5072125;28;19919;-64
2022/10/03 02:32:47;;;;;;;;;;;8.30;99.90;;;;;;5065059;28;20321;-64
2022/10/03 02:35:31;;;;;;;;;;;8.30;99.90;;;;;;5005106;28;20013;-64
2022/10/03 02:38:04;;;;;;;;;;;8.40;99.90;;;;;;5000221;28;19928;-64
2022/10/03 02:40:40;;;;;;;;;;;8.40;99.90;;;;;;5041256;28;20289;-64
2022/10/03 02:43:25;;;;;;;;;;;8.50;99.90;;;;;;5049794;28;19913;-64
2022/10/03 02:45:56;;;;;;;;;;;8.50;99.90;;;;;;5071983;28;19927;-64
2022/10/03 02:48:23;;;;;;;;;;;8.50;99.90;;;;;;5064135;28;19912;-64
2022/10/03 02:50:49;;;;;;;;;;;8.60;99.90;;;;;;5066912;28;19913;-65
2022/10/03 02:53:32;;;;;;;;;;;8.70;99.90;;;;;;5065657;28;19973;-65
2022/10/03 02:55:58;;;;;;;;;;;8.70;99.90;;;;;;5064747;28;20031;-65
2022/10/03 02:58:41;;;;;;;;;;;8.70;99.90;;;;;;5063216;28;19955;-64
2022/10/03 03:01:12;;;;;;;;;;;8.90;99.90;;;;;;5066590;28;19919;-65
2022/10/03 03:03:55;;;;;;;;;;;8.80;99.90;;;;;;5121226;27;19938;-64
2022/10/03 03:06:28;;;;;;;;;;;8.70;99.90;;;;;;5110276;28;19999;-64
2022/10/03 03:08:57;;;;;;;;;;;8.80;99.90;;;;;;5101442;28;20392;-64
2022/10/03 03:11:24;;;;;;;;;;;8.80;99.90;;;;;;5109284;28;19935;-64
2022/10/03 03:14:09;;;;;;;;;;;8.80;99.90;;;;;;5106178;28;19916;-64
2022/10/03 03:16:48;;;;;;;;;;;8.70;99.90;;;;;;5116675;28;19921;-64
2022/10/03 03:19:17;;;;;;;;;;;8.60;99.90;;;;;;5104391;28;20353;-65
2022/10/03 03:21:50;;;;;;;;;;;8.60;99.90;;;;;;5110365;28;20069;-65
2022/10/03 03:24:15;;;;;;;;;;;8.70;99.90;;;;;;5111651;28;19919;-64
2022/10/03 03:26:44;;;;;;;;;;;8.70;99.90;;;;;;5109038;28;19911;-65
2022/10/03 03:29:12;;;;;;;;;;;8.60;99.90;;;;;;5101758;27;19926;-64
2022/10/03 03:31:48;;;;;;;;;;;8.60;99.90;;;;;;5117590;28;19912;-64
2022/10/03 03:34:21;;;;;;;;;;;8.60;99.90;;;;;;5094796;28;19937;-64
2022/10/03 03:36:47;;;;;;;;;;;8.70;99.90;;;;;;5123288;28;19923;-65
2022/10/03 03:39:28;;;;;;;;;;;8.80;99.90;;;;;;5103197;28;19923;-64
2022/10/03 03:41:53;;;;;;;;;;;8.80;99.90;;;;;;5105932;28;19974;-65
2022/10/03 03:44:30;;;;;;;;;;;8.80;99.90;;;;;;5115402;28;19912;-66
2022/10/03 03:47:07;;;;;;;;;;;8.80;99.90;;;;;;5113678;28;19920;-65
2022/10/03 03:49:42;;;;;;;;;;;8.90;99.90;;;;;;5102884;27;20278;-65
2022/10/03 03:52:22;;;;;;;;;;;8.90;99.90;;;;;;5107952;28;20336;-65
2022/10/03 03:54:54;;;;;;;;;;;8.90;99.90;;;;;;5112585;28;19997;-64
2022/10/03 03:57:31;;;;;;;;;;;9.10;99.90;;;;;;5100349;28;19912;-64
2022/10/03 04:00:19;;;;;;;;;;;9.10;99.90;;;;;;5101169;28;20279;-63
2022/10/03 04:03:03;;;;;;;;;;;9.20;99.90;;;;;;5103017;28;20278;-64
2022/10/03 04:05:52;;;;;;;;;;;9.10;99.90;;;;;;5102819;28;20285;-64
2022/10/03 04:08:27;;;;;;;;;;;9.00;99.90;;;;;;5104826;28;20379;-64
2022/10/03 04:11:20;;;;;;;;;;;9.00;99.90;;;;;;5093426;28;20026;-64
2022/10/03 04:13:46;;;;;;;;;;;8.90;99.90;;;;;;5089911;28;20335;-65
2022/10/03 04:16:12;;;;;;;;;;;8.90;99.90;;;;;;5093424;28;20388;-64
2022/10/03 04:18:58;;;;;;;;;;;9.00;99.90;;;;;;5087719;28;19947;-63
2022/10/03 04:21:30;;;;;;;;;;;9.10;99.90;;;;;;5092866;28;19911;-64
2022/10/03 04:24:21;;;;;;;;;;;9.10;99.90;;;;;;5090726;28;19912;-64
2022/10/03 04:27:06;;;;;;;;;;;9.10;99.90;;;;;;5069099;28;19912;-65
2022/10/03 04:29:46;;;;;;;;;;;9.00;99.90;;;;;;5087756;28;20401;-64
2022/10/03 04:32:32;;;;;;;;;;;9.10;99.90;;;;;;5110709;28;20649;-63
2022/10/03 04:35:07;;;;;;;;;;;9.00;99.90;;;;;;5081363;28;20011;-65
2022/10/03 04:37:32;;;;;;;;;;;8.80;99.90;;;;;;5102787;28;19923;-64
2022/10/03 04:40:03;;;;;;;;;;;8.80;99.90;;;;;;5092130;28;19912;-65
2022/10/03 04:42:55;;;;;;;;;;;8.70;99.90;;;;;;5104911;28;19927;-65
2022/10/03 04:45:40;;;;;;;;;;;8.50;99.90;;;;;;5077379;28;19919;-65
2022/10/03 04:48:17;;;;;;;;;;;8.50;99.90;;;;;;5087312;28;19920;-65
2022/10/03 04:50:43;;;;;;;;;;;8.40;99.90;;;;;;5089721;28;19919;-64
2022/10/03 04:53:25;;;;;;;;;;;8.40;99.90;;;;;;5081420;28;19991;-64
2022/10/03 04:56:12;;;;;;;;;;;8.40;99.90;;;;;;5081438;28;19912;-64
2022/10/03 04:58:39;;;;;;;;;;;8.50;99.90;;;;;;5090767;28;19919;-65
2022/10/03 05:01:25;;;;;;;;;;;8.50;99.90;;;;;;5086578;28;20278;-65
2022/10/03 05:04:09;;;;;;;;;;;8.50;99.90;;;;;;5085452;28;19924;-65
2022/10/03 05:06:54;;;;;;;;;;;8.40;99.90;;;;;;5094912;28;19922;-65
2022/10/03 05:09:34;;;;;;;;;;;8.40;99.90;;;;;;5092301;28;20003;-65
2022/10/03 05:12:01;;;;;;;;;;;8.50;99.90;;;;;;5078555;28;19912;-65
2022/10/03 05:14:48;;;;;;;;;;;8.70;99.90;;;;;;5096798;28;19959;-65
2022/10/03 05:17:23;;;;;;;;;;;8.60;99.90;;;;;;5096444;28;20331;-65
2022/10/03 05:20:01;;;;;;;;;;;8.60;99.90;;;;;;5083540;28;20216;-65
2022/10/03 05:22:30;;;;;;;;;;;8.70;99.90;;;;;;5102909;28;19948;-65
2022/10/03 05:25:12;;;;;;;;;;;8.60;99.90;;;;;;5090413;28;19920;-66
2022/10/03 05:27:47;;;;;;;;;;;8.50;99.90;;;;;;5090361;28;20117;-64
2022/10/03 05:30:12;;;;;;;;;;;8.50;99.90;;;;;;5094987;28;20495;-64
2022/10/03 05:32:41;;;;;;;;;;;8.50;99.90;;;;;;5085850;28;19982;-65
2022/10/03 05:35:20;;;;;;;;;;;8.60;99.90;;;;;;5088806;28;19937;-65
2022/10/03 05:37:55;;;;;;;;;;;8.60;99.90;;;;;;5095682;27;19913;-64
2022/10/03 05:40:23;;;;;;;;;;;8.60;99.90;;;;;;5093078;28;19916;-65
2022/10/03 05:42:48;;;;;;;;;;;8.60;99.90;;;;;;5112460;28;19920;-65
2022/10/03 05:45:20;;;;;;;;;;;8.70;99.90;;;;;;5099027;28;19919;-64
2022/10/03 05:48:04;;;;;;;;;;;8.80;99.90;;;;;;5105313;28;19913;-64
2022/10/03 05:50:57;;;;;;;;;;;8.70;99.90;;;;;;5077153;28;19920;-64
2022/10/03 05:53:24;;;;;;;;;;;8.70;99.90;;;;;;5092256;28;19915;-65
2022/10/03 05:55:58;;;;;;;;;;;8.80;99.90;;;;;;5090903;28;19913;-64
2022/10/03 05:58:38;;;;;;;;;;;8.80;99.90;;;;;;5093749;28;19916;-64
2022/10/03 06:01:03;;;;;;;;;;;8.70;99.90;;;;;;5085668;28;19913;-64
2022/10/03 06:03:47;;;;;;;;;;;8.60;99.90;;;;;;5087267;28;19924;-65
2022/10/03 06:06:16;;;;;;;;;;;8.50;99.90;;;;;;5084843;28;19956;-63
2022/10/03 06:09:12;;;;;;;;;;;8.50;99.90;;;;;;5085478;28;19913;-64
2022/10/03 06:11:56;;;;;;;;;;;8.50;99.90;;;;;;5080750;28;20007;-64
2022/10/03 06:14:24;;;;;;;;;;;8.60;99.90;;;;;;5085326;28;19920;-64
2022/10/03 06:17:08;;;;;;;;;;;8.70;99.90;;;;;;5093186;28;20004;-65
2022/10/03 06:19:47;;;;;;;;;;;8.80;99.90;;;;;;5077537;28;20297;-64
2022/10/03 06:22:31;;;;;;;;;;;8.70;99.90;;;;;;5095011;28;20010;-64
2022/10/03 06:25:03;;;;;;;;;;;8.70;99.90;;;;;;5087871;28;19912;-65
2022/10/03 06:27:47;;;;;;;;;;;8.70;99.90;;;;;;5101683;28;19912;-65
2022/10/03 06:30:16;;;;;;;;;;;8.70;99.90;;;;;;5077923;28;19916;-64
2022/10/03 06:33:02;;;;;;;;;;;8.70;99.90;;;;;;5090787;28;19916;-65
2022/10/03 06:35:46;;;;;;;;;;;8.80;99.90;;;;;;5091314;28;19912;-65
2022/10/03 06:38:21;;;;;;;;;;;8.80;99.90;;;;;;5107505;27;20262;-65
2022/10/03 06:41:00;;;;;;;;;;;8.70;99.90;;;;;;5085689;28;20007;-66
2022/10/03 06:43:52;;;;;;;;;;;8.80;99.90;;;;;;5084388;28;19950;-65
2022/10/03 06:46:32;;;;;;;;;;;8.90;99.90;;;;;;5082772;28;19989;-65
2022/10/03 06:49:17;;;;;;;;;;;8.90;99.90;;;;;;5075192;28;19990;-65
2022/10/03 06:52:11;;;;;;;;;;;8.80;99.90;;;;;;5089677;28;20219;-64
2022/10/03 06:54:40;;;;;;;;;;;8.90;99.90;;;;;;5063619;28;21256;-65
2022/10/03 06:57:28;;;;;;;;;;;8.80;99.90;;;;;;5080648;28;20375;-65
2022/10/03 06:59:54;;;;;;;;;;;8.80;99.90;;;;;;5063448;28;20371;-64
2022/10/03 07:02:19;;;;;;;;;;;8.90;99.90;;;;;;5074910;28;19920;-65
2022/10/03 07:04:51;;;;;;;;;;;9.00;99.90;;;;;;5090639;28;19912;-65
2022/10/03 07:07:35;;;;;;;;;;;8.90;99.90;;;;;;5087478;28;20460;-65
2022/10/03 07:10:19;;;;;;;;;;;9.00;99.90;;;;;;5096875;28;19912;-64
2022/10/03 07:12:46;;;;;;;;;;;9.00;99.90;;;;;;5117966;28;19962;-64
2022/10/03 07:15:14;;;;;;;;;;;9.10;99.90;;;;;;5120445;28;19912;-64
2022/10/03 07:17:43;;;;;;;;;;;9.10;99.90;;;;;;5116252;28;19912;-65
2022/10/03 07:20:24;;;;;;;;;;;9.20;99.90;;;;;;5098220;28;20051;-64
2022/10/03 07:23:01;;;;;;;;;;;9.30;99.90;;;;;;5099325;28;19920;-64
2022/10/03 07:25:45;;;;;;;;;;;9.30;99.90;;;;;;5118688;28;20381;-64
2022/10/03 07:28:47;;;;;;;;;;;9.40;99.90;;;;;;5117246;28;19911;-64
2022/10/03 07:31:18;;;;;;;;;;;9.40;99.90;;;;;;5062638;28;19913;-63
2022/10/03 07:33:55;;;;;;;;;;;9.40;99.90;;;;;;5092668;28;19912;-64
2022/10/03 07:39:33;;;;;;;;;;;9.60;99.90;;;;;;5085512;28;20341;-65
2022/10/03 07:42:11;;;;;;;;;;;9.70;99.90;;;;;;5110419;28;19962;-65
2022/10/03 07:44:55;;;;;;;;;;;9.80;99.90;;;;;;5100339;28;19923;-65
2022/10/03 07:47:30;;;;;;;;;;;9.90;99.90;;;;;;5111853;28;19936;-64
2022/10/03 07:49:56;;;;;;;;;;;9.90;99.90;;;;;;5114376;28;20278;-65
2022/10/03 07:52:33;;;;;;;;;;;10.00;99.90;;;;;;5099088;28;19912;-64
2022/10/03 07:55:08;;;;;;;;;;;10.00;99.90;;;;;;5104659;28;19918;-65
2022/10/03 07:57:37;;;;;;;;;;;10.00;99.90;;;;;;5100360;28;19924;-65
2022/10/03 08:00:23;;;;;;;;;;;10.10;99.90;;;;;;5116111;28;20003;-65
2022/10/03 08:03:07;;;;;;;;;;;10.20;99.90;;;;;;5125325;28;19920;-65
2022/10/03 08:05:36;;;;;;;;;;;10.30;99.90;;;;;;5113301;28;19912;-65
2022/10/03 08:08:13;;;;;;;;;;;10.40;99.90;;;;;;5094407;28;19972;-65
2022/10/03 08:10:45;;;;;;;;;;;10.40;99.90;;;;;;5105276;28;19912;-65
2022/10/03 08:13:20;;;;;;;;;;;10.40;99.90;;;;;;5093333;28;19916;-65
2022/10/03 08:15:55;;;;;;;;;;;10.50;99.90;;;;;;5113150;28;19911;-64
2022/10/03 08:18:40;;;;;;;;;;;10.60;99.90;;;;;;5100443;28;19912;-65
2022/10/03 08:21:35;;;;;;;;;;;10.70;99.90;;;;;;5111330;28;19937;-64
2022/10/03 08:24:03;;;;;;;;;;;10.80;99.90;;;;;;5106812;28;20024;-64
2022/10/03 08:26:55;;;;;;;;;;;10.90;99.90;;;;;;5112023;28;19915;-65
2022/10/03 08:29:39;;;;;;;;;;;10.90;99.90;;;;;;5083230;28;20413;-65
2022/10/03 08:32:23;;;;;;;;;;;11.00;99.90;;;;;;5092475;28;19912;-65
2022/10/03 08:34:59;;;;;;;;;;;11.10;99.90;;;;;;5092587;28;19912;-66
2022/10/03 08:37:25;;;;;;;;;;;11.20;99.90;;;;;;5108572;28;19912;-66
2022/10/03 08:40:06;;;;;;;;;;;11.30;99.90;;;;;;5097887;28;19933;-65
2022/10/03 08:42:34;;;;;;;;;;;11.40;99.90;;;;;;5122382;28;19978;-65
2022/10/03 08:45:19;;;;;;;;;;;11.40;99.90;;;;;;5098709;28;19916;-64
2022/10/03 08:47:47;;;;;;;;;;;11.50;99.90;;;;;;5089898;28;19942;-65
2022/10/03 08:50:31;;;;;;;;;;;11.70;99.90;;;;;;5116399;28;19912;-65
2022/10/03 08:53:15;;;;;;;;;;;11.70;99.90;;;;;;5095632;28;19912;-66
2022/10/03 08:55:47;;;;;;;;;;;11.80;99.90;;;;;;5107115;28;20382;-65
2022/10/03 08:58:31;;;;;;;;;;;11.90;99.90;;;;;;5112097;28;20251;-66
2022/10/03 09:01:15;;;;;;;;;;;12.10;99.90;;;;;;5103278;28;20010;-65
2022/10/03 09:04:00;;;;;;;;;;;12.30;99.90;;;;;;5096400;28;19931;-65
2022/10/03 09:06:40;;;;;;;;;;;12.50;99.90;;;;;;5083590;28;20261;-64
2022/10/03 09:09:12;;;;;;;;;;;12.60;99.90;;;;;;5110088;28;19999;-65
2022/10/03 09:11:47;;;;;;;;;;;12.70;99.90;;;;;;5099287;28;19912;-64
2022/10/03 09:14:16;;;;;;;;;;;12.80;99.90;;;;;;5109089;28;19933;-64
2022/10/03 09:16:41;;;;;;;;;;;13.00;99.90;;;;;;5094432;28;20320;-65
2022/10/03 09:19:26;;;;;;;;;;;13.00;99.90;;;;;;5092443;28;20007;-65
2022/10/03 09:21:57;;;;;;;;;;;13.20;99.90;;;;;;5084475;28;20022;-65
2022/10/03 09:24:32;;;;;;;;;;;13.30;99.90;;;;;;5096623;28;19912;-65
2022/10/03 09:27:03;;;;;;;;;;;13.50;99.90;;;;;;5084981;28;20337;-64
2022/10/03 09:29:32;;;;;;;;;;;13.70;99.90;;;;;;5100103;28;20003;-65
2022/10/03 09:32:00;;;;;;;;;;;13.90;99.90;;;;;;5094981;28;19919;-64
2022/10/03 09:34:55;;;;;;;;;;;14.10;99.90;;;;;;5087170;28;19951;-65
2022/10/03 09:37:28;;;;;;;;;;;14.10;99.90;;;;;;5087966;28;19953;-65
2022/10/03 09:39:59;;;;;;;;;;;14.20;99.90;;;;;;5091022;28;19912;-65
2022/10/03 09:42:35;;;;;;;;;;;14.30;99.90;;;;;;5090265;28;20706;-64
2022/10/03 09:45:20;;;;;;;;;;;14.40;99.90;;;;;;5102899;28;19912;-65
2022/10/03 09:48:15;;;;;;;;;;;14.50;99.90;;;;;;5095383;28;19912;-64
2022/10/03 09:50:54;;;;;;;;;;;14.70;99.90;;;;;;5085489;28;19919;-65
2022/10/03 09:53:42;;;;;;;;;;;14.70;99.90;;;;;;5087505;28;20015;-64
2022/10/03 09:56:26;;;;;;;;;;;14.80;99.90;;;;;;5097732;28;19938;-65
2022/10/03 09:58:58;;;;;;;;;;;14.80;99.90;;;;;;5108041;28;19918;-66
2022/10/03 10:01:29;;;;;;;;;;;14.70;99.90;;;;;;5099077;28;19916;-64
2022/10/03 10:03:54;;;;;;;;;;;14.90;99.90;;;;;;5089365;28;20040;-64
2022/10/03 10:06:20;;;;;;;;;;;15.10;99.90;;;;;;5091094;28;19944;-65
2022/10/03 10:09:13;;;;;;;;;;;15.20;99.90;;;;;;5095075;28;19931;-65
2022/10/03 10:11:44;;;;;;;;;;;15.20;99.90;;;;;;5082836;28;19924;-64
2022/10/03 10:14:15;;;;;;;;;;;15.30;99.90;;;;;;5084823;28;19912;-65
2022/10/03 10:16:41;;;;;;;;;;;15.50;99.90;;;;;;5088858;28;19950;-64
2022/10/03 10:19:19;;;;;;;;;;;15.60;99.90;;;;;;5092324;28;19916;-64
2022/10/03 10:22:03;;;;;;;;;;;15.80;99.90;;;;;;5102830;28;19970;-64
2022/10/03 10:24:29;;;;;;;;;;;16.00;99.90;;;;;;5097513;28;19920;-65
2022/10/03 10:27:06;;;;;;;;;;;16.00;99.90;;;;;;5085597;28;19917;-65
2022/10/03 10:29:47;;;;;;;;;;;15.90;99.90;;;;;;5093247;28;20011;-64
2022/10/03 10:32:32;;;;;;;;;;;16.10;99.90;;;;;;5088414;28;19923;-66
2022/10/03 10:35:00;;;;;;;;;;;16.10;99.90;;;;;;5088406;28;19916;-65
2022/10/03 10:37:35;;;;;;;;;;;16.00;99.90;;;;;;5085099;28;19998;-65
2022/10/03 10:40:19;;;;;;;;;;;16.00;99.90;;;;;;5086350;28;19924;-65
2022/10/03 10:42:45;;;;;;;;;;;16.20;99.90;;;;;;5095517;28;19987;-65
2022/10/03 10:45:13;;;;;;;;;;;16.30;99.90;;;;;;5095720;28;19944;-64
2022/10/03 10:47:54;;;;;;;;;;;16.70;99.90;;;;;;5100340;28;19912;-65
2022/10/03 10:50:38;;;;;;;;;;;17.10;99.90;;;;;;5101173;28;20393;-65
2022/10/03 10:53:22;;;;;;;;;;;17.40;99.90;;;;;;5106468;28;19912;-65
2022/10/03 10:56:00;;;;;;;;;;;17.60;99.90;;;;;;5110006;28;19951;-64
2022/10/03 10:58:28;;;;;;;;;;;17.70;99.90;;;;;;5096552;28;19973;-67
2022/10/03 11:01:09;;;;;;;;;;;17.80;99.90;;;;;;5105192;28;19940;-64
2022/10/03 11:03:59;;;;;;;;;;;18.00;99.90;;;;;;5097578;28;19920;-65
2022/10/03 11:06:47;;;;;;;;;;;17.90;99.90;;;;;;5085305;28;20333;-64
2022/10/03 11:09:31;;;;;;;;;;;18.00;99.90;;;;;;5090488;28;19912;-65
2022/10/03 11:12:08;;;;;;;;;;;18.10;99.90;;;;;;5090840;28;20350;-65
2022/10/03 11:14:53;;;;;;;;;;;18.10;99.90;;;;;;5098915;28;19923;-64
2022/10/03 11:17:21;;;;;;;;;;;18.10;99.90;;;;;;5115431;28;20285;-67
2022/10/03 11:19:55;;;;;;;;;;;18.00;99.90;;;;;;5110583;28;20022;-66
2022/10/03 11:22:39;;;;;;;;;;;18.00;99.90;;;;;;5083593;28;19935;-65
2022/10/03 11:25:23;;;;;;;;;;;18.20;99.90;;;;;;5102874;28;19967;-64
2022/10/03 11:28:07;;;;;;;;;;;18.40;99.90;;;;;;5101126;28;19984;-65
2022/10/03 11:30:51;;;;;;;;;;;18.50;99.90;;;;;;5104003;28;19912;-64
2022/10/03 11:33:20;;;;;;;;;;;18.50;99.90;;;;;;5097809;28;19971;-64
2022/10/03 11:36:05;;;;;;;;;;;18.40;99.90;;;;;;5098409;28;19916;-65
2022/10/03 11:38:33;;;;;;;;;;;18.30;99.90;;;;;;5088275;28;19916;-65
2022/10/03 11:41:07;;;;;;;;;;;18.40;99.90;;;;;;5090779;28;19977;-66
2022/10/03 11:43:52;;;;;;;;;;;18.50;99.90;;;;;;5097507;28;19979;-65
2022/10/03 11:46:36;;;;;;;;;;;18.60;99.90;;;;;;5096634;28;19912;-65
2022/10/03 11:49:17;;;;;;;;;;;18.60;99.90;;;;;;5119404;28;19919;-65
2022/10/03 11:51:49;;;;;;;;;;;18.80;99.90;;;;;;5100628;28;19940;-65
2022/10/03 11:54:26;;;;;;;;;;;18.90;99.90;;;;;;5092142;28;19916;-64
2022/10/03 11:57:12;;;;;;;;;;;19.00;99.90;;;;;;5102943;28;19949;-65
2022/10/03 11:59:54;;;;;;;;;;;19.00;99.90;;;;;;5105895;28;19919;-65
2022/10/03 12:02:19;;;;;;;;;;;19.00;99.90;;;;;;5093231;28;19920;-64
2022/10/03 12:04:45;;;;;;;;;;;18.90;99.90;;;;;;5093510;28;19912;-66
2022/10/03 12:10:16;;;;;;;;;;;19.00;99.90;;;;;;5095110;28;19918;-65
2022/10/03 12:12:51;;;;;;;;;;;19.20;99.90;;;;;;5099893;28;19912;-65
2022/10/03 12:15:25;;;;;;;;;;;19.30;99.90;;;;;;5101514;28;19927;-65
2022/10/03 12:18:12;;;;;;;;;;;19.50;99.90;;;;;;5097907;28;19911;-64
2022/10/03 12:20:37;;;;;;;;;;;19.50;99.90;;;;;;5088234;28;19995;-65
2022/10/03 12:23:03;;;;;;;;;;;19.60;99.90;;;;;;5097759;28;19959;-66
2022/10/03 12:25:33;;;;;;;;;;;19.70;99.90;;;;;;5091721;28;19920;-65
2022/10/03 12:28:16;;;;;;;;;;;19.80;99.90;;;;;;5095050;28;19920;-65
2022/10/03 12:30:47;;;;;;;;;;;19.90;99.90;;;;;;5098557;28;19955;-64
2022/10/03 12:33:32;;;;;;;;;;;19.80;99.90;;;;;;5096998;28;19913;-66
2022/10/03 12:36:04;;;;;;;;;;;19.80;99.90;;;;;;5100239;28;19921;-66
2022/10/03 12:38:32;;;;;;;;;;;19.90;97.50;;;;;;5103038;28;19963;-65
2022/10/03 12:41:10;;;;;;;;;;;19.90;95.60;;;;;;5124153;28;19908;-64
2022/10/03 12:43:42;;;;;;;;;;;20.00;94.10;;;;;;5113629;27;19928;-64
2022/10/03 12:46:29;;;;;;;;;;;19.80;93.30;;;;;;5112647;28;20375;-65
2022/10/03 12:49:02;;;;;;;;;;;19.70;92.00;;;;;;5103518;28;19916;-64
2022/10/03 12:51:43;;;;;;;;;;;19.70;92.50;;;;;;5118340;28;20089;-65
2022/10/03 12:54:27;;;;;;;;;;;19.70;91.70;;;;;;5097911;28;20321;-64
2022/10/03 12:57:11;;;;;;;;;;;19.80;91.40;;;;;;5093448;28;19943;-64
2022/10/03 12:59:41;;;;;;;;;;;19.90;91.10;;;;;;5092602;28;19935;-66
2022/10/03 13:02:31;;;;;;;;;;;20.10;90.40;;;;;;5092255;28;20433;-64
2022/10/03 13:05:17;;;;;;;;;;;20.20;89.00;;;;;;5098340;28;20046;-66
2022/10/03 13:08:05;;;;;;;;;;;20.00;86.80;;;;;;5088874;28;19912;-64
2022/10/03 13:10:31;;;;;;;;;;;19.90;88.70;;;;;;5090676;28;19912;-64
2022/10/03 13:13:03;;;;;;;;;;;19.90;89.00;;;;;;5096204;28;19913;-64
2022/10/03 13:15:47;;;;;;;;;;;20.00;88.20;;;;;;5113533;28;20034;-64
2022/10/03 13:18:12;;;;;;;;;;;20.00;88.00;;;;;;5103672;28;19912;-65
2022/10/03 13:20:42;;;;;;;;;;;20.00;87.80;;;;;;5113147;28;20336;-64
2022/10/03 13:23:20;;;;;;;;;;;20.10;88.30;;;;;;5090745;28;19920;-66
2022/10/03 13:25:52;;;;;;;;;;;20.40;85.50;;;;;;5094544;28;19921;-66
2022/10/03 13:28:21;;;;;;;;;;;20.40;83.70;;;;;;5092581;28;19933;-65
2022/10/03 13:30:52;;;;;;;;;;;20.40;84.30;;;;;;5114450;28;19981;-65
2022/10/03 13:33:28;;;;;;;;;;;20.50;84.00;;;;;;5097132;28;20656;-64
2022/10/03 13:36:11;;;;;;;;;;;20.50;81.80;;;;;;5107551;28;19919;-65
2022/10/03 13:38:45;;;;;;;;;;;20.20;82.70;;;;;;5117512;28;19920;-64
2022/10/03 13:41:14;;;;;;;;;;;20.20;84.00;;;;;;5107471;28;19920;-65
2022/10/03 13:43:42;;;;;;;;;;;20.40;83.80;;;;;;5111696;28;20406;-65
2022/10/03 13:46:37;;;;;;;;;;;20.60;81.70;;;;;;5083502;28;19931;-65
2022/10/03 13:49:17;;;;;;;;;;;20.50;81.60;;;;;;5086563;28;20341;-65
2022/10/03 13:51:48;;;;;;;;;;;20.60;82.40;;;;;;5100651;28;20261;-65
2022/10/03 13:54:42;;;;;;;;;;;20.70;81.10;;;;;;5088166;28;19973;-65
2022/10/03 13:57:17;;;;;;;;;;;20.70;80.20;;;;;;5103422;28;19912;-65
2022/10/03 13:59:51;;;;;;;;;;;20.80;79.90;;;;;;5101135;28;19975;-66
2022/10/03 14:02:22;;;;;;;;;;;20.90;79.30;;;;;;5091426;28;19920;-66
2022/10/03 14:05:06;;;;;;;;;;;20.80;76.90;;;;;;5081960;28;19923;-66
2022/10/03 14:07:41;;;;;;;;;;;20.60;76.80;;;;;;5071271;28;19966;-67
2022/10/03 14:10:12;;;;;;;;;;;20.20;77.90;;;;;;5086097;28;19919;-65
2022/10/03 14:12:57;;;;;;;;;;;19.90;80.30;;;;;;5077371;28;19912;-65
2022/10/03 14:15:30;;;;;;;;;;;19.80;80.80;;;;;;5081202;28;19916;-65
2022/10/03 14:18:01;;;;;;;;;;;19.70;81.10;;;;;;5080068;28;19913;-67
2022/10/03 14:20:36;;;;;;;;;;;19.70;81.60;;;;;;5074672;28;20385;-65
2022/10/03 14:23:07;;;;;;;;;;;19.80;82.10;;;;;;5073096;28;19977;-64
2022/10/03 14:25:37;;;;;;;;;;;19.90;81.40;;;;;;5081498;28;20242;-65
2022/10/03 14:28:03;;;;;;;;;;;20.00;81.70;;;;;;5086510;28;19930;-65
2022/10/03 14:30:30;;;;;;;;;;;19.90;81.70;;;;;;5092402;28;19912;-64
2022/10/03 14:33:02;;;;;;;;;;;20.00;81.40;;;;;;5086090;28;19912;-64
2022/10/03 14:35:32;;;;;;;;;;;19.80;82.00;;;;;;5093486;28;19912;-64
2022/10/03 14:38:02;;;;;;;;;;;19.70;83.00;;;;;;5121806;27;19955;-66
2022/10/03 14:40:34;;;;;;;;;;;19.60;84.50;;;;;;5094331;28;19969;-65
2022/10/03 14:43:18;;;;;;;;;;;19.70;84.90;;;;;;5080130;28;20331;-65
2022/10/03 14:45:48;;;;;;;;;;;19.70;83.50;;;;;;5096949;28;19920;-64
2022/10/03 14:48:22;;;;;;;;;;;19.80;83.40;;;;;;5082132;28;19944;-66
2022/10/03 14:50:50;;;;;;;;;;;19.90;83.90;;;;;;5094088;28;19916;-66
2022/10/03 14:53:19;;;;;;;;;;;20.20;83.40;;;;;;5078694;28;19966;-65
2022/10/03 14:55:52;;;;;;;;;;;20.30;81.70;;;;;;5084039;28;19916;-66
2022/10/03 14:58:33;;;;;;;;;;;20.20;80.70;;;;;;5087108;28;20014;-66
2022/10/03 15:01:06;;;;;;;;;;;20.30;80.70;;;;;;5084667;28;19919;-65
2022/10/03 15:03:37;;;;;;;;;;;20.30;80.40;;;;;;5110114;28;19927;-64
2022/10/03 15:06:08;;;;;;;;;;;20.40;80.50;;;;;;5097952;28;19992;-64
2022/10/03 15:08:41;;;;;;;;;;;20.30;80.40;;;;;;5079972;28;19920;-66
2022/10/03 15:11:09;;;;;;;;;;;20.30;80.70;;;;;;5077232;28;20349;-64
2022/10/03 15:13:38;;;;;;;;;;;20.30;78.50;;;;;;5091226;28;20575;-64
2022/10/03 15:16:03;;;;;;;;;;;20.40;78.40;;;;;;5086122;28;20301;-64
2022/10/03 15:18:29;;;;;;;;;;;20.40;77.90;;;;;;5085587;28;19912;-65
2022/10/03 15:20:56;;;;;;;;;;;20.30;78.70;;;;;;5083781;28;20035;-66
2022/10/03 15:23:24;;;;;;;;;;;20.20;80.10;;;;;;5096812;28;19920;-64
2022/10/03 15:25:52;;;;;;;;;;;20.00;80.20;;;;;;5089935;28;19923;-64